Time;durP1;ratioP1;P1;durP2;ratioP2;P2;SDS_P1;SDS_P2;PMS_P1;PMS_P2;Temp;Humidity;BMP_temperature;BMP_pressure;BME280_temperature;BME280_humidity;BME280_pressure;Samples;Min_cycle;Max_cycle;Signal;HPM_P1;HPM_P2
2021/01/04 00:02:00;;;;;;;4.43;2.20;;;2.10;99.90;;;;;;5014447;28;20068;-76
2021/01/04 00:04:35;;;;;;;;;;;2.10;99.90;;;;;;5014573;28;20037;-77
2021/01/04 00:07:15;;;;;;;5.38;2.63;;;2.10;99.90;;;;;;5014299;28;19963;-76
2021/01/04 00:10:12;;;;;;;5.38;2.10;;;2.20;99.90;;;;;;5014331;28;20116;-77
2021/01/04 00:12:49;;;;;;;10.40;2.45;;;2.20;99.90;;;;;;5014111;28;20041;-77
2021/01/04 00:15:53;;;;;;;3.38;2.40;;;2.20;99.90;;;;;;5013947;28;20018;-76
2021/01/04 00:18:48;;;;;;;15.93;2.73;;;2.10;99.90;;;;;;4989558;28;20034;-76
2021/01/04 00:21:47;;;;;;;3.40;1.73;;;2.10;99.90;;;;;;5013958;28;20033;-76
2021/01/04 00:24:34;;;;;;;7.13;2.55;;;2.20;99.90;;;;;;5012426;28;20026;-76
2021/01/04 00:27:11;;;;;;;5.68;2.40;;;2.10;99.90;;;;;;5014181;28;20053;-76
2021/01/04 00:29:39;;;;;;;5.90;2.45;;;2.10;99.90;;;;;;5012574;28;20483;-77
2021/01/04 00:32:12;;;;;;;5.25;2.20;;;2.10;99.90;;;;;;5014894;28;20080;-76
2021/01/04 00:34:47;;;;;;;7.80;2.50;;;2.10;99.90;;;;;;5033260;28;20034;-76
2021/01/04 00:37:31;;;;;;;5.40;2.40;;;2.10;99.90;;;;;;5025301;28;20141;-76
2021/01/04 00:40:20;;;;;;;7.38;2.08;;;2.10;99.90;;;;;;5013573;28;20088;-76
2021/01/04 00:42:50;;;;;;;8.07;2.20;;;2.10;99.90;;;;;;5028635;28;20027;-76
2021/01/04 00:45:26;;;;;;;7.28;2.85;;;2.10;99.90;;;;;;5031834;28;20516;-76
2021/01/04 00:48:10;;;;;;;5.68;2.85;;;2.10;99.90;;;;;;5022689;28;20034;-76
2021/01/04 00:50:48;;;;;;;3.88;2.25;;;2.10;99.90;;;;;;5013418;28;20479;-76
2021/01/04 00:53:35;;;;;;;4.72;1.85;;;2.00;99.90;;;;;;5013353;28;20104;-77
2021/01/04 00:56:52;;;;;;;6.78;2.17;;;2.00;99.90;;;;;;5012703;28;20406;-76
2021/01/04 00:59:20;;;;;;;5.85;2.30;;;2.00;99.90;;;;;;5010121;28;20414;-76
2021/01/04 01:01:46;;;;;;;2.85;2.03;;;2.00;99.90;;;;;;5036536;28;20500;-76
2021/01/04 01:04:15;;;;;;;5.60;2.38;;;2.00;99.90;;;;;;5034166;28;20026;-76
2021/01/04 01:06:43;;;;;;;2.25;1.90;;;2.00;99.90;;;;;;5028671;28;20021;-76
2021/01/04 01:09:11;;;;;;;6.22;1.75;;;2.00;99.90;;;;;;5011636;28;20483;-76
2021/01/04 01:11:51;;;;;;;4.97;2.42;;;1.80;99.90;;;;;;5013023;28;20029;-76
2021/01/04 01:14:43;;;;;;;2.75;2.10;;;1.90;99.90;;;;;;5012744;28;20068;-76
2021/01/04 01:17:30;;;;;;;5.32;2.50;;;1.90;99.90;;;;;;5014997;28;20439;-76
2021/01/04 01:19:59;;;;;;;4.45;2.30;;;1.90;99.90;;;;;;5031400;28;20029;-76
2021/01/04 01:22:37;;;;;;;4.38;2.10;;;1.80;99.90;;;;;;5032647;28;20402;-77
2021/01/04 01:25:10;;;;;;;3.42;2.00;;;1.80;99.90;;;;;;5031094;28;20482;-76
2021/01/04 01:27:58;;;;;;;4.55;2.58;;;1.80;99.90;;;;;;5017269;28;20486;-76
2021/01/04 01:30:47;;;;;;;5.18;2.03;;;1.80;99.90;;;;;;5012165;28;20528;-77
2021/01/04 01:34:01;;;;;;;7.15;2.30;;;1.80;99.90;;;;;;5012817;28;20021;-76
2021/01/04 01:37:04;;;;;;;6.30;2.20;;;1.80;99.90;;;;;;5013969;28;20053;-77
2021/01/04 01:40:07;;;;;;;6.15;2.35;;;1.80;99.90;;;;;;5032264;28;20120;-76
2021/01/04 01:42:47;;;;;;;5.80;2.00;;;1.80;99.90;;;;;;5030435;28;20025;-76
2021/01/04 01:45:22;;;;;;;2.47;1.80;;;1.80;99.90;;;;;;5030805;28;20033;-77
2021/01/04 01:48:27;;;;;;;4.20;2.22;;;1.80;99.90;;;;;;5021112;28;20139;-76
2021/01/04 01:51:01;;;;;;;3.10;1.75;;;1.80;99.90;;;;;;5011121;28;20076;-76
2021/01/04 01:53:49;;;;;;;5.63;2.25;;;1.70;99.90;;;;;;5012398;28;20029;-76
2021/01/04 01:56:32;;;;;;;4.45;2.17;;;1.60;99.90;;;;;;5014754;28;20028;-76
2021/01/04 01:59:18;;;;;;;3.35;1.75;;;1.60;99.90;;;;;;5031972;28;20033;-76
2021/01/04 02:01:59;;;;;;;8.23;2.08;;;1.60;99.90;;;;;;5031955;28;20509;-76
2021/01/04 02:04:57;;;;;;;3.90;1.60;;;1.50;99.90;;;;;;5031780;28;20029;-76
2021/01/04 02:07:37;;;;;;;3.97;2.25;;;1.50;99.90;;;;;;5001217;28;20125;-76
2021/01/04 02:10:25;;;;;;;6.68;2.00;;;1.50;99.90;;;;;;5012150;28;20044;-76
2021/01/04 02:13:00;;;;;;;2.72;1.85;;;1.50;99.90;;;;;;5013209;28;20513;-76
2021/01/04 02:15:34;;;;;;;7.85;2.50;;;1.50;99.90;;;;;;5011904;28;20026;-76
2021/01/04 02:18:24;;;;;;;;;;;1.50;99.90;;;;;;5023481;28;20033;-76
2021/01/04 02:21:28;;;;;;;6.25;2.10;;;1.40;99.90;;;;;;5030454;28;19909;-77
2021/01/04 02:24:03;;;;;;;3.05;2.20;;;1.50;99.90;;;;;;5031591;28;20028;-76
2021/01/04 02:26:29;;;;;;;3.75;2.60;;;1.50;99.90;;;;;;5025596;28;20026;-77
2021/01/04 02:29:01;;;;;;;3.38;2.10;;;1.50;99.90;;;;;;5012172;28;20056;-76
2021/01/04 02:31:29;;;;;;;4.15;1.90;;;1.50;99.90;;;;;;5010636;28;20038;-76
2021/01/04 02:33:55;;;;;;;3.63;2.13;;;1.50;99.90;;;;;;5011796;28;20574;-77
2021/01/04 02:36:22;;;;;;;2.38;1.83;;;1.40;99.90;;;;;;5012087;28;20037;-76
2021/01/04 02:39:00;;;;;;;2.63;1.80;;;1.40;99.90;;;;;;5031061;28;20033;-77
2021/01/04 02:41:37;;;;;;;2.15;1.80;;;1.40;99.90;;;;;;5031338;28;20028;-77
2021/01/04 02:44:03;;;;;;;6.25;1.92;;;1.40;99.90;;;;;;5035321;28;20371;-76
2021/01/04 02:46:30;;;;;;;3.95;2.03;;;1.40;99.90;;;;;;5035558;28;20025;-76
2021/01/04 02:49:34;;;;;;;2.95;1.52;;;1.50;99.90;;;;;;5053156;28;20048;-77
2021/01/04 02:52:09;;;;;;;2.30;1.70;;;1.50;99.90;;;;;;5035642;28;20033;-77
2021/01/04 02:54:44;;;;;;;7.97;1.80;;;1.50;99.90;;;;;;5055058;28;20477;-77
2021/01/04 02:57:29;;;;;;;3.78;2.50;;;1.50;99.90;;;;;;5044250;28;20029;-77
2021/01/04 03:00:01;;;;;;;8.85;2.10;;;1.50;99.90;;;;;;5035271;28;20083;-76
2021/01/04 03:02:49;;;;;;;6.43;2.72;;;1.50;99.90;;;;;;5035330;28;20033;-77
2021/01/04 03:05:19;;;;;;;4.63;1.98;;;1.50;99.90;;;;;;5035003;28;20108;-77
2021/01/04 03:07:55;;;;;;;3.45;2.17;;;1.50;99.90;;;;;;5021559;28;20030;-76
2021/01/04 03:10:41;;;;;;;4.25;2.00;;;1.50;99.90;;;;;;5015339;28;20034;-77
2021/01/04 03:13:27;;;;;;;5.35;2.40;;;1.50;99.90;;;;;;5014959;28;20045;-76
2021/01/04 03:15:58;;;;;;;6.40;2.47;;;1.40;99.90;;;;;;5015100;28;20026;-76
2021/01/04 03:18:45;;;;;;;7.75;2.65;;;1.40;99.90;;;;;;5028103;28;20073;-76
2021/01/04 03:21:12;;;;;;;3.50;2.10;;;1.50;99.90;;;;;;5034916;28;20033;-76
2021/01/04 03:23:39;;;;;;;4.13;2.38;;;1.50;99.90;;;;;;5033633;28;20437;-76
2021/01/04 03:26:11;;;;;;;3.45;1.90;;;1.40;99.90;;;;;;5031917;28;20079;-76
2021/01/04 03:28:37;;;;;;;4.40;1.85;;;1.40;99.90;;;;;;5014997;28;20386;-76
2021/01/04 03:31:06;;;;;;;9.32;3.40;;;1.40;99.90;;;;;;5013712;28;20084;-77
2021/01/04 03:33:32;;;;;;;4.90;2.20;;;1.40;99.90;;;;;;5015000;28;20030;-76
2021/01/04 03:35:58;;;;;;;6.65;2.13;;;1.40;99.90;;;;;;5014605;28;20026;-76
2021/01/04 03:38:24;;;;;;;6.43;2.22;;;1.40;99.90;;;;;;5031721;28;20037;-76
2021/01/04 03:40:50;;;;;;;5.78;2.10;;;1.30;99.90;;;;;;5034564;28;20083;-76
2021/01/04 03:43:17;;;;;;;6.70;2.35;;;1.30;99.90;;;;;;5033848;28;20057;-76
2021/01/04 03:45:42;;;;;;;7.30;2.60;;;1.30;99.90;;;;;;5034144;28;20018;-76
2021/01/04 03:48:08;;;;;;;3.75;1.75;;;1.30;99.90;;;;;;5019827;28;20410;-76
2021/01/04 03:50:34;;;;;;;6.35;2.72;;;1.20;99.90;;;;;;5014095;28;20034;-77
2021/01/04 03:53:00;;;;;;;4.18;2.47;;;1.20;99.90;;;;;;5014603;28;20129;-77
2021/01/04 03:55:25;;;;;;;6.22;2.35;;;1.20;99.90;;;;;;5013551;28;20069;-76
2021/01/04 03:57:51;;;;;;;8.10;2.75;;;1.20;99.90;;;;;;5029843;28;20418;-76
2021/01/04 04:00:18;;;;;;;3.10;2.22;;;1.20;99.90;;;;;;5034135;28;20124;-76
2021/01/04 04:02:44;;;;;;;5.22;2.58;;;1.10;99.90;;;;;;5034153;28;20532;-76
2021/01/04 04:05:12;;;;;;;6.43;3.08;;;1.10;99.90;;;;;;5032657;28;20022;-76
2021/01/04 04:07:39;;;;;;;4.88;2.30;;;1.20;99.90;;;;;;5021533;28;20495;-76
2021/01/04 04:10:05;;;;;;;4.90;2.63;;;1.20;99.90;;;;;;5014296;28;20038;-76
2021/01/04 04:12:30;;;;;;;6.63;2.72;;;1.20;99.90;;;;;;5014051;28;20037;-77
2021/01/04 04:14:56;;;;;;;4.85;2.67;;;1.10;99.90;;;;;;5012707;28;20033;-76
2021/01/04 04:17:22;;;;;;;3.85;2.22;;;1.10;99.90;;;;;;5019792;28;20367;-76
2021/01/04 04:19:49;;;;;;;3.05;2.15;;;1.10;99.90;;;;;;5033735;28;20040;-77
2021/01/04 04:22:15;;;;;;;5.22;2.33;;;1.10;99.90;;;;;;5032567;28;20018;-76
2021/01/04 04:24:45;;;;;;;4.05;2.10;;;1.10;99.90;;;;;;5033568;28;20044;-76
2021/01/04 04:27:12;;;;;;;5.10;2.35;;;1.10;99.90;;;;;;5023253;28;20112;-76
2021/01/04 04:29:38;;;;;;;4.60;2.53;;;1.10;99.90;;;;;;5012757;28;20482;-76
2021/01/04 04:32:04;;;;;;;4.90;2.70;;;1.10;99.90;;;;;;5013885;28;20022;-76
2021/01/04 04:34:30;;;;;;;4.18;2.58;;;1.00;99.90;;;;;;5013565;28;20040;-76
2021/01/04 04:36:55;;;;;;;3.55;2.67;;;1.00;99.90;;;;;;5017597;28;20033;-76
2021/01/04 04:39:21;;;;;;;4.85;2.53;;;1.00;99.90;;;;;;5033404;28;20029;-77
2021/01/04 04:41:49;;;;;;;6.30;2.33;;;1.00;99.90;;;;;;5026302;28;20030;-77
2021/01/04 04:44:18;;;;;;;6.57;2.75;;;1.00;99.90;;;;;;5013362;28;20029;-76
2021/01/04 04:47:18;;;;;;;3.30;2.38;;;1.00;99.90;;;;;;5013929;28;20026;-77
2021/01/04 04:50:05;;;;;;;7.38;2.60;;;0.90;99.90;;;;;;5032003;28;20537;-76
2021/01/04 04:52:56;;;;;;;3.40;2.60;;;0.90;99.90;;;;;;5032017;28;20032;-76
2021/01/04 04:55:39;;;;;;;2.63;1.85;;;0.90;99.90;;;;;;5032935;28;20029;-77
2021/01/04 04:58:36;;;;;;;2.90;2.30;;;0.80;99.90;;;;;;5015502;28;20042;-76
2021/01/04 05:01:11;;;;;;;3.38;2.47;;;0.80;99.90;;;;;;5013385;28;20029;-77
2021/01/04 05:03:45;;;;;;;5.68;2.80;;;0.80;99.90;;;;;;5013192;28;20589;-76
2021/01/04 05:06:33;;;;;;;5.30;2.15;;;0.80;99.90;;;;;;5010997;28;20434;-76
2021/01/04 05:09:11;;;;;;;5.18;2.67;;;0.80;99.90;;;;;;5013135;28;20084;-76
2021/01/04 05:11:40;;;;;;;3.13;2.63;;;0.80;99.90;;;;;;5018908;28;20053;-76
2021/01/04 05:14:17;;;;;;;3.85;2.50;;;0.80;99.90;;;;;;5032585;28;20101;-76
2021/01/04 05:16:51;;;;;;;2.88;2.33;;;0.80;99.90;;;;;;5030905;28;20460;-76
2021/01/04 05:19:44;;;;;;;8.52;2.90;;;0.80;99.90;;;;;;5012849;28;20030;-76
2021/01/04 05:22:46;;;;;;;2.70;2.17;;;0.80;99.90;;;;;;5012932;28;20101;-76
2021/01/04 05:25:12;;;;;;;4.05;2.50;;;0.80;99.90;;;;;;5012699;28;20022;-77
2021/01/04 05:27:43;;;;;;;6.25;3.03;;;0.80;99.90;;;;;;5026186;28;20033;-76
2021/01/04 05:30:32;;;;;;;7.43;3.00;;;0.70;99.90;;;;;;5031272;28;20477;-77
2021/01/04 05:33:25;;;;;;;11.10;3.15;;;0.70;99.90;;;;;;5032391;28;20040;-77
2021/01/04 05:35:56;;;;;;;11.70;2.60;;;0.70;99.90;;;;;;5032178;28;20087;-76
2021/01/04 05:38:54;;;;;;;6.55;2.13;;;0.70;99.90;;;;;;5015446;28;20467;-76
2021/01/04 05:41:50;;;;;;;6.43;2.50;;;0.70;99.90;;;;;;5012653;28;20022;-76
2021/01/04 05:44:37;;;;;;;3.55;2.25;;;0.70;99.90;;;;;;5012314;28;20083;-76
2021/01/04 05:47:22;;;;;;;7.13;2.20;;;0.70;99.90;;;;;;5015316;28;20025;-76
2021/01/04 05:50:17;;;;;;;2.33;1.90;;;0.70;99.90;;;;;;5030970;28;20029;-76
2021/01/04 05:52:42;;;;;;;3.70;2.35;;;0.70;99.90;;;;;;5032234;28;20048;-76
2021/01/04 05:55:12;;;;;;;9.95;2.28;;;0.70;99.90;;;;;;5031694;28;20517;-76
2021/01/04 05:57:46;;;;;;;3.03;2.22;;;0.70;99.90;;;;;;5018239;28;20032;-76
2021/01/04 06:00:32;;;;;;;5.90;2.60;;;0.70;99.90;;;;;;5012315;28;20030;-76
2021/01/04 06:03:18;;;;;;;3.45;2.08;;;0.70;99.90;;;;;;5010915;28;20554;-76
2021/01/04 06:05:44;;;;;;;2.47;2.10;;;0.70;99.90;;;;;;5012094;28;20109;-77
2021/01/04 06:08:20;;;;;;;2.97;1.90;;;0.70;99.90;;;;;;5043106;28;20481;-76
2021/01/04 06:10:46;;;;;;;5.88;2.30;;;0.60;99.90;;;;;;5050583;28;20040;-76
2021/01/04 06:13:14;;;;;;;2.58;2.17;;;0.60;99.90;;;;;;5051565;28;20029;-76
2021/01/04 06:15:40;;;;;;;5.18;2.58;;;0.70;99.90;;;;;;5051513;28;20039;-74
2021/01/04 06:18:09;;;;;;;13.52;2.40;;;0.60;99.90;;;;;;5037202;28;20116;-74
2021/01/04 06:20:43;;;;;;;3.53;1.77;;;0.70;99.90;;;;;;5031751;28;20060;-76
2021/01/04 06:23:28;;;;;;;3.33;1.95;;;0.70;99.90;;;;;;5030500;28;20024;-76
2021/01/04 06:25:59;;;;;;;3.20;1.90;;;0.60;99.90;;;;;;5030238;28;20052;-76
2021/01/04 06:28:25;;;;;;;3.03;2.50;;;0.60;99.90;;;;;;5010841;28;20061;-76
2021/01/04 06:31:08;;;;;;;4.45;3.00;;;0.60;99.90;;;;;;5011933;28;20026;-76
2021/01/04 06:33:34;;;;;;;7.27;2.60;;;0.60;99.90;;;;;;5012027;28;20022;-77
2021/01/04 06:36:15;;;;;;;2.83;2.20;;;0.60;99.90;;;;;;5011753;28;20265;-77
2021/01/04 06:38:43;;;;;;;7.40;2.58;;;0.70;99.90;;;;;;5012182;28;20030;-76
2021/01/04 06:41:18;;;;;;;3.50;2.47;;;0.60;99.90;;;;;;5011802;28;20379;-77
2021/01/04 06:43:44;;;;;;;10.05;2.30;;;0.60;99.90;;;;;;5031417;28;20021;-77
2021/01/04 06:46:28;;;;;;;2.85;2.15;;;0.60;99.90;;;;;;5030205;28;20121;-76
2021/01/04 06:49:12;;;;;;;1.90;1.70;;;0.60;99.90;;;;;;5013169;28;20101;-77
2021/01/04 06:52:06;;;;;;;6.05;2.33;;;0.60;99.90;;;;;;5011794;28;20026;-77
2021/01/04 06:54:37;;;;;;;;;;;0.60;99.90;;;;;;5011958;28;20486;-76
2021/01/04 06:57:18;;;;;;;2.17;1.80;;;0.60;99.90;;;;;;5020295;28;19909;-77
2021/01/04 07:00:02;;;;;;;4.30;2.20;;;0.70;99.90;;;;;;5030057;28;20022;-76
2021/01/04 07:02:49;;;;;;;3.92;2.20;;;0.60;99.90;;;;;;5031426;28;20022;-77
2021/01/04 07:05:33;;;;;;;2.63;1.92;;;0.70;99.90;;;;;;5031366;28;20075;-76
2021/01/04 07:08:11;;;;;;;5.25;2.00;;;0.70;99.90;;;;;;5016382;28;20030;-77
2021/01/04 07:10:45;;;;;;;2.67;2.10;;;0.70;99.90;;;;;;5010378;28;20386;-76
2021/01/04 07:13:19;;;;;;;3.25;2.25;;;0.80;99.90;;;;;;5011575;28;20494;-76
2021/01/04 07:16:06;;;;;;;2.00;1.80;;;0.80;99.90;;;;;;5011158;28;20056;-76
2021/01/04 07:18:59;;;;;;;1.90;1.70;;;0.70;99.90;;;;;;5025584;28;20482;-76
2021/01/04 07:21:36;;;;;;;2.67;1.85;;;0.70;99.90;;;;;;5031229;28;20068;-76
2021/01/04 07:24:22;;;;;;;4.28;2.20;;;0.80;99.90;;;;;;5031002;28;20048;-77
2021/01/04 07:27:17;;;;;;;3.75;2.30;;;0.80;99.90;;;;;;5024275;28;20068;-76
2021/01/04 07:30:01;;;;;;;4.88;2.33;;;0.80;99.90;;;;;;5013321;28;20021;-76
2021/01/04 07:32:38;;;;;;;;;;;0.80;99.90;;;;;;5015417;28;20033;-76
2021/01/04 07:35:13;;;;;;;15.77;1.90;;;0.80;99.90;;;;;;5014859;28;19905;-76
2021/01/04 07:38:16;;;;;;;2.47;1.67;;;0.80;99.90;;;;;;5024297;28;20025;-77
2021/01/04 07:40:47;;;;;;;9.13;1.75;;;0.80;99.90;;;;;;5034470;28;20029;-76
2021/01/04 07:43:36;;;;;;;1.50;1.27;;;0.80;99.90;;;;;;5034357;28;20061;-77
2021/01/04 07:46:31;;;;;;;2.47;1.63;;;0.80;99.90;;;;;;5014802;28;20033;-76
2021/01/04 07:49:34;;;;;;;2.35;1.88;;;0.80;99.90;;;;;;5015751;28;20105;-76
2021/01/04 07:52:18;;;;;;;2.63;1.52;;;0.90;99.90;;;;;;5013315;28;20058;-77
2021/01/04 07:55:20;;;;;;;2.33;1.95;;;0.90;99.90;;;;;;5014302;28;20034;-77
2021/01/04 07:58:04;;;;;;;6.53;1.67;;;0.90;99.90;;;;;;5028825;28;20026;-76
2021/01/04 08:00:54;;;;;;;2.78;1.60;;;0.90;99.90;;;;;;5033456;28;20030;-76
2021/01/04 08:03:51;;;;;;;5.15;1.50;;;0.90;99.90;;;;;;5013888;28;20516;-76
2021/01/04 08:06:43;;;;;;;1.80;1.58;;;0.90;99.90;;;;;;5012835;28;20033;-76
2021/01/04 08:09:36;;;;;;;3.83;1.45;;;1.00;99.90;;;;;;5027704;28;20018;-76
2021/01/04 08:12:39;;;;;;;4.75;1.50;;;0.90;99.90;;;;;;5024054;28;20121;-76
2021/01/04 08:15:23;;;;;;;4.20;1.92;;;0.90;99.90;;;;;;5033458;28;20037;-76
2021/01/04 08:18:05;;;;;;;2.08;1.30;;;0.90;99.90;;;;;;5031672;28;20367;-77
2021/01/04 08:20:32;;;;;;;5.47;1.83;;;0.90;99.90;;;;;;5032467;28;20104;-76
2021/01/04 08:23:31;;;;;;;2.78;1.63;;;0.90;99.90;;;;;;5032446;28;20116;-76
2021/01/04 08:26:17;;;;;;;7.20;1.88;;;1.00;99.90;;;;;;5033246;28;20504;-76
2021/01/04 08:29:02;;;;;;;3.53;1.38;;;1.00;99.90;;;;;;5013693;28;20026;-76
2021/01/04 08:31:57;;;;;;;3.88;1.55;;;1.00;99.90;;;;;;5013859;28;20113;-76
2021/01/04 08:34:23;;;;;;;4.45;1.70;;;1.10;99.90;;;;;;5012244;28;20117;-77
2021/01/04 08:36:52;;;;;;;4.10;1.52;;;1.10;99.90;;;;;;5016581;28;20113;-76
2021/01/04 08:39:20;;;;;;;4.15;1.77;;;1.10;99.90;;;;;;5014502;28;20109;-77
2021/01/04 08:42:02;;;;;;;2.92;1.50;;;1.20;99.90;;;;;;5013344;28;20037;-76
2021/01/04 08:44:27;;;;;;;3.35;1.73;;;1.20;99.90;;;;;;5013360;28;20022;-77
2021/01/04 08:46:54;;;;;;;4.70;1.70;;;1.30;99.90;;;;;;5014413;28;20532;-77
2021/01/04 08:49:28;;;;;;;4.60;1.55;;;1.30;99.90;;;;;;5034730;28;20026;-77
2021/01/04 08:51:54;;;;;;;4.95;1.65;;;1.20;99.90;;;;;;5033145;28;20036;-77
2021/01/04 08:54:28;;;;;;;6.68;1.70;;;1.20;99.90;;;;;;5032804;28;20099;-77
2021/01/04 08:57:18;;;;;;;6.53;1.83;;;1.30;99.90;;;;;;5031753;28;20026;-77
2021/01/04 08:59:56;;;;;;;2.83;1.90;;;1.30;99.90;;;;;;5027641;28;20095;-77
2021/01/04 09:02:41;;;;;;;8.13;2.17;;;1.40;99.90;;;;;;5033045;28;20401;-76
2021/01/04 09:05:10;;;;;;;5.35;1.90;;;1.40;99.90;;;;;;5032606;28;20040;-77
2021/01/04 09:07:51;;;;;;;5.63;1.80;;;1.40;99.90;;;;;;5032896;28;20022;-76
2021/01/04 09:10:37;;;;;;;4.25;1.80;;;1.50;99.90;;;;;;5031566;28;20033;-77
2021/01/04 09:13:09;;;;;;;2.90;1.63;;;1.40;99.90;;;;;;5032777;28;20104;-77
2021/01/04 09:15:36;;;;;;;15.85;3.92;;;1.50;99.90;;;;;;5032426;28;20032;-76
2021/01/04 09:18:01;;;;;;;4.40;1.98;;;1.60;99.90;;;;;;5033785;28;20489;-76
2021/01/04 09:20:43;;;;;;;4.72;1.98;;;1.60;99.90;;;;;;5032523;28;20036;-76
2021/01/04 09:23:24;;;;;;;3.03;1.67;;;1.50;99.90;;;;;;5040272;28;20064;-77
2021/01/04 09:25:53;;;;;;;3.20;1.75;;;1.50;99.90;;;;;;5031421;28;20021;-77
2021/01/04 09:28:22;;;;;;;4.82;2.55;;;1.60;99.90;;;;;;5024481;28;20018;-76
2021/01/04 09:30:49;;;;;;;6.00;2.40;;;1.50;99.90;;;;;;5020788;28;20033;-77
2021/01/04 09:33:20;;;;;;;2.92;1.80;;;1.60;99.90;;;;;;5032399;28;20178;-76
2021/01/04 09:35:46;;;;;;;4.72;2.22;;;1.60;99.90;;;;;;5031929;28;20048;-76
2021/01/04 09:38:22;;;;;;;3.17;1.75;;;1.60;99.90;;;;;;5032119;28;20041;-76
2021/01/04 09:40:50;;;;;;;4.28;1.77;;;1.60;99.90;;;;;;5027155;28;20033;-76
2021/01/04 09:43:22;;;;;;;1.42;1.23;;;1.60;99.90;;;;;;5032057;28;20022;-77
2021/01/04 09:45:47;;;;;;;6.93;1.60;;;1.60;99.90;;;;;;5026238;28;20033;-76
2021/01/04 09:48:38;;;;;;;4.82;1.58;;;1.70;99.90;;;;;;5012326;28;20087;-76
2021/01/04 09:51:08;;;;;;;3.80;1.70;;;1.80;99.90;;;;;;5010921;28;20033;-76
2021/01/04 09:53:39;;;;;;;2.58;1.60;;;1.90;99.90;;;;;;5029513;28;20508;-76
2021/01/04 09:56:12;;;;;;;7.93;1.85;;;1.90;99.90;;;;;;5029795;28;20037;-76
2021/01/04 09:58:40;;;;;;;4.15;1.95;;;1.80;99.90;;;;;;5022420;28;20030;-76
2021/01/04 10:01:10;;;;;;;5.53;1.52;;;1.80;99.90;;;;;;5012172;28;20034;-77
2021/01/04 10:03:37;;;;;;;3.70;1.50;;;1.90;99.90;;;;;;5012873;28;20030;-77
2021/01/04 10:06:09;;;;;;;2.75;1.50;;;1.90;99.90;;;;;;5031667;28;20013;-77
2021/01/04 10:08:37;;;;;;;4.10;1.80;;;1.80;99.90;;;;;;5010693;28;20050;-76
2021/01/04 10:11:07;;;;;;;6.32;1.65;;;1.90;99.90;;;;;;5011994;28;20034;-77
2021/01/04 10:13:38;;;;;;;2.22;1.27;;;1.90;99.90;;;;;;5012026;28;20029;-77
2021/01/04 10:16:20;;;;;;;7.72;1.92;;;1.90;99.90;;;;;;5015349;28;20060;-76
2021/01/04 10:19:25;;;;;;;2.85;1.92;;;2.10;99.90;;;;;;5013069;28;20036;-76
2021/01/04 10:22:09;;;;;;;2.03;1.50;;;2.20;99.90;;;;;;5012014;28;20041;-76
2021/01/04 10:24:46;;;;;;;1.65;1.30;;;2.30;99.90;;;;;;5011720;28;20029;-76
2021/01/04 10:27:17;;;;;;;2.22;1.63;;;2.30;99.90;;;;;;5013467;28;20101;-77
2021/01/04 10:29:47;;;;;;;6.97;1.58;;;2.30;99.90;;;;;;5030513;28;20037;-76
2021/01/04 10:32:21;;;;;;;4.57;1.60;;;2.20;99.90;;;;;;5031515;28;20022;-76
2021/01/04 10:34:49;;;;;;;2.58;1.70;;;2.20;99.90;;;;;;5030034;28;20037;-76
2021/01/04 10:37:44;;;;;;;4.63;1.58;;;2.20;99.90;;;;;;5022051;28;20080;-77
2021/01/04 10:40:15;;;;;;;2.67;1.63;;;2.40;99.90;;;;;;5012487;28;20511;-76
2021/01/04 10:42:43;;;;;;;3.03;2.15;;;2.40;99.90;;;;;;5031556;28;20481;-76
2021/01/04 10:45:15;;;;;;;3.78;2.10;;;2.40;99.90;;;;;;5030098;28;20076;-76
2021/01/04 10:48:10;;;;;;;3.25;1.73;;;2.30;99.90;;;;;;5030805;28;20104;-75
2021/01/04 10:50:38;;;;;;;1.65;1.45;;;2.30;99.90;;;;;;5031544;28;20029;-76
2021/01/04 10:53:10;;;;;;;3.90;1.60;;;2.30;99.90;;;;;;5030254;28;20030;-75
2021/01/04 10:55:49;;;;;;;1.88;1.33;;;2.30;99.90;;;;;;5030907;28;20040;-76
2021/01/04 10:58:24;;;;;;;2.33;1.52;;;2.40;99.90;;;;;;5030806;28;20029;-76
2021/01/04 11:01:02;;;;;;;5.93;2.05;;;2.40;99.90;;;;;;5027925;28;20037;-77
2021/01/04 11:03:28;;;;;;;2.30;1.50;;;2.40;99.90;;;;;;5031294;28;20018;-76
2021/01/04 11:05:53;;;;;;;3.50;1.50;;;2.40;99.90;;;;;;5034167;28;20496;-75
2021/01/04 11:08:30;;;;;;;6.68;1.77;;;2.30;99.90;;;;;;5018080;28;20025;-76
2021/01/04 11:11:01;;;;;;;6.43;1.88;;;2.40;99.90;;;;;;5015005;28;20022;-77
2021/01/04 11:13:32;;;;;;;2.92;1.42;;;2.40;99.90;;;;;;5013843;28;20113;-76
2021/01/04 11:16:06;;;;;;;5.95;1.80;;;2.40;99.90;;;;;;5015320;28;20026;-76
2021/01/04 11:18:32;;;;;;;8.32;1.58;;;2.40;99.90;;;;;;5033833;28;20033;-76
2021/01/04 11:20:58;;;;;;;2.20;1.48;;;2.50;99.90;;;;;;5033367;28;20485;-76
2021/01/04 11:23:23;;;;;;;8.13;1.20;;;2.60;99.90;;;;;;5034588;28;20037;-75
2021/01/04 11:25:49;;;;;;;4.35;1.35;;;2.60;99.90;;;;;;5033234;28;20216;-75
2021/01/04 11:28:14;;;;;;;1.98;1.38;;;2.50;99.90;;;;;;5023346;28;20075;-76
2021/01/04 11:30:40;;;;;;;3.30;1.20;;;2.60;99.90;;;;;;5014726;28;20030;-75
2021/01/04 11:33:06;;;;;;;11.15;1.23;;;2.50;99.90;;;;;;5014935;28;20509;-76
2021/01/04 11:35:32;;;;;;;2.35;1.20;;;2.40;99.90;;;;;;5025704;28;20142;-75
2021/01/04 11:37:59;;;;;;;1.80;1.60;;;2.40;99.90;;;;;;5033975;28;20029;-75
2021/01/04 11:40:26;;;;;;;2.72;1.52;;;2.40;99.90;;;;;;5033194;28;20029;-75
2021/01/04 11:42:52;;;;;;;3.67;1.75;;;2.40;99.90;;;;;;5034405;28;20111;-75
2021/01/04 11:45:20;;;;;;;2.83;1.60;;;2.50;99.90;;;;;;5034327;28;20525;-75
2021/01/04 11:47:47;;;;;;;3.17;1.52;;;2.60;99.90;;;;;;5034004;28;20072;-75
2021/01/04 11:50:15;;;;;;;2.53;1.40;;;2.70;99.90;;;;;;5033143;28;20031;-75
2021/01/04 11:52:41;;;;;;;1.95;1.33;;;2.70;99.90;;;;;;5031663;28;20508;-75
2021/01/04 11:55:12;;;;;;;2.88;1.30;;;2.70;99.90;;;;;;5032464;28;20071;-75
2021/01/04 11:57:38;;;;;;;9.75;1.63;;;2.70;99.90;;;;;;5033642;28;20026;-75
2021/01/04 12:00:12;;;;;;;4.28;1.60;;;2.70;99.90;;;;;;5034135;28;20061;-76
2021/01/04 12:02:37;;;;;;;1.63;1.30;;;2.70;99.90;;;;;;5033857;28;20097;-76
2021/01/04 12:05:05;;;;;;;2.88;1.40;;;2.70;99.90;;;;;;5032989;28;20028;-75
2021/01/04 12:07:31;;;;;;;1.58;1.30;;;2.90;99.90;;;;;;5033092;28;20032;-76
2021/01/04 12:09:56;;;;;;;7.45;1.23;;;2.90;99.90;;;;;;5032644;28;20253;-76
2021/01/04 12:12:22;;;;;;;2.63;1.17;;;2.90;99.90;;;;;;5033818;28;20417;-75
2021/01/04 12:14:48;;;;;;;3.92;1.13;;;3.00;99.90;;;;;;5033228;28;20029;-75
2021/01/04 12:17:15;;;;;;;3.05;1.48;;;3.00;99.90;;;;;;5031927;28;20033;-76
2021/01/04 12:19:40;;;;;;;1.83;1.05;;;3.00;99.90;;;;;;5033696;28;20025;-75
2021/01/04 12:22:09;;;;;;;8.13;1.60;;;2.90;99.90;;;;;;5032237;28;20567;-75
2021/01/04 12:24:35;;;;;;;3.67;1.05;;;2.90;99.90;;;;;;5033459;28;20022;-76
2021/01/04 12:27:05;;;;;;;2.50;1.10;;;2.90;99.90;;;;;;5033877;28;20658;-76
2021/01/04 12:29:31;;;;;;;3.72;1.50;;;2.90;99.90;;;;;;5031409;28;20696;-75
2021/01/04 12:31:57;;;;;;;3.72;1.45;;;2.90;99.90;;;;;;5032214;28;20030;-75
2021/01/04 12:34:22;;;;;;;3.35;1.10;;;2.90;99.90;;;;;;5030668;28;20033;-76
2021/01/04 12:36:48;;;;;;;8.13;1.80;;;2.80;99.90;;;;;;5017639;28;20033;-76
2021/01/04 12:39:13;;;;;;;5.57;1.10;;;2.80;99.90;;;;;;5033183;28;20095;-76
2021/01/04 12:41:40;;;;;;;3.85;1.40;;;2.90;99.90;;;;;;5032403;28;20053;-79
2021/01/04 12:44:08;;;;;;;6.32;1.75;;;3.00;99.90;;;;;;5020087;28;20034;-79
2021/01/04 12:46:33;;;;;;;3.50;1.60;;;2.90;99.90;;;;;;5013620;28;20022;-80
2021/01/04 12:48:59;;;;;;;8.05;1.25;;;3.00;99.90;;;;;;5013435;28;20085;-79
2021/01/04 12:51:24;;;;;;;6.82;1.30;;;3.00;99.90;;;;;;5014140;28;20036;-78
2021/01/04 12:53:50;;;;;;;4.30;1.70;;;3.00;99.90;;;;;;5031951;28;20064;-75
2021/01/04 12:56:18;;;;;;;2.33;1.08;;;3.10;99.90;;;;;;5014659;28;20033;-76
2021/01/04 12:58:45;;;;;;;10.18;1.42;;;2.90;99.90;;;;;;5013241;28;20561;-76
2021/01/04 13:01:15;;;;;;;4.65;1.30;;;2.90;99.90;;;;;;5013220;28;20060;-76
2021/01/04 13:03:41;;;;;;;3.60;1.38;;;2.80;99.90;;;;;;5029535;28;20068;-77
2021/01/04 13:06:06;;;;;;;5.20;1.20;;;2.80;99.90;;;;;;5030676;28;20029;-77
2021/01/04 13:08:34;;;;;;;6.05;1.40;;;2.70;99.90;;;;;;5032117;28;20084;-77
2021/01/04 13:11:01;;;;;;;7.68;1.42;;;2.80;99.90;;;;;;5032958;28;20083;-77
2021/01/04 13:13:26;;;;;;;2.80;1.20;;;2.80;99.90;;;;;;5020216;28;20156;-77
2021/01/04 13:15:52;;;;;;;7.53;1.52;;;2.80;99.90;;;;;;5012746;28;20108;-76
2021/01/04 13:18:17;;;;;;;6.15;1.58;;;2.80;99.90;;;;;;5012664;28;20444;-76
2021/01/04 13:20:43;;;;;;;2.10;1.08;;;2.80;99.90;;;;;;5012922;28;20026;-76
2021/01/04 13:23:08;;;;;;;8.02;1.13;;;2.70;99.90;;;;;;5028048;28;20030;-75
2021/01/04 13:25:35;;;;;;;2.45;1.30;;;2.70;99.90;;;;;;5032186;28;20128;-76
2021/01/04 13:28:01;;;;;;;1.73;0.90;;;2.70;99.90;;;;;;5030406;28;20521;-76
2021/01/04 13:30:27;;;;;;;5.22;1.20;;;2.80;99.90;;;;;;5032550;28;20026;-75
2021/01/04 13:32:53;;;;;;;1.75;1.45;;;2.80;99.90;;;;;;5021314;28;20116;-75
2021/01/04 13:35:18;;;;;;;4.95;1.35;;;2.80;99.90;;;;;;5011260;28;20096;-76
2021/01/04 13:37:45;;;;;;;4.13;1.30;;;2.80;99.90;;;;;;5011339;28;20569;-76
2021/01/04 13:40:11;;;;;;;3.78;1.38;;;2.70;99.90;;;;;;5012466;28;20471;-76
2021/01/04 13:42:37;;;;;;;2.97;1.67;;;2.70;99.90;;;;;;5030694;28;20313;-75